sensor_id;sensor_type;location;lat;lon;timestamp;P1;durP1;ratioP1;P2;durP2;ratioP2
15966;SDS011;15175;48.154;11.534;2023-11-22T00:02:18;10.40;;;5.20;;
15966;SDS011;15175;48.154;11.534;2023-11-22T00:08:20;8.00;;;4.80;;
15966;SDS011;15175;48.154;11.534;2023-11-22T00:14:24;10.13;;;4.97;;
15966;SDS011;15175;48.154;11.534;2023-11-22T00:20:27;12.85;;;5.03;;
15966;SDS011;15175;48.154;11.534;2023-11-22T00:26:29;12.18;;;5.35;;
15966;SDS011;15175;48.154;11.534;2023-11-22T00:32:35;10.60;;;6.03;;
15966;SDS011;15175;48.154;11.534;2023-11-22T00:38:37;9.70;;;5.55;;
15966;SDS011;15175;48.154;11.534;2023-11-22T00:44:39;11.95;;;5.07;;
15966;SDS011;15175;48.154;11.534;2023-11-22T00:50:43;12.02;;;5.40;;
15966;SDS011;15175;48.154;11.534;2023-11-22T00:56:45;13.50;;;6.05;;
15966;SDS011;15175;48.154;11.534;2023-11-22T01:02:47;10.30;;;5.47;;
15966;SDS011;15175;48.154;11.534;2023-11-22T01:08:51;9.13;;;5.32;;
15966;SDS011;15175;48.154;11.534;2023-11-22T01:20:55;10.68;;;5.25;;
15966;SDS011;15175;48.154;11.534;2023-11-22T01:26:58;8.93;;;5.13;;
15966;SDS011;15175;48.154;11.534;2023-11-22T01:39:02;9.43;;;4.65;;
15966;SDS011;15175;48.154;11.534;2023-11-22T01:45:07;10.43;;;4.97;;
15966;SDS011;15175;48.154;11.534;2023-11-22T01:51:10;9.65;;;5.55;;
15966;SDS011;15175;48.154;11.534;2023-11-22T01:57:12;10.30;;;5.32;;
15966;SDS011;15175;48.154;11.534;2023-11-22T02:09:19;7.88;;;3.97;;
15966;SDS011;15175;48.154;11.534;2023-11-22T02:15:21;6.15;;;3.05;;
15966;SDS011;15175;48.154;11.534;2023-11-22T02:21:26;5.10;;;2.40;;
15966;SDS011;15175;48.154;11.534;2023-11-22T02:27:29;3.97;;;2.20;;
15966;SDS011;15175;48.154;11.534;2023-11-22T02:33:31;3.65;;;1.98;;
15966;SDS011;15175;48.154;11.534;2023-11-22T02:39:37;3.95;;;1.83;;
15966;SDS011;15175;48.154;11.534;2023-11-22T02:45:51;2.78;;;1.20;;
15966;SDS011;15175;48.154;11.534;2023-11-22T02:51:53;3.67;;;1.60;;
15966;SDS011;15175;48.154;11.534;2023-11-22T02:57:56;3.17;;;1.50;;
15966;SDS011;15175;48.154;11.534;2023-11-22T03:03:59;3.65;;;1.48;;
15966;SDS011;15175;48.154;11.534;2023-11-22T03:10:01;2.17;;;1.20;;
15966;SDS011;15175;48.154;11.534;2023-11-22T03:16:04;3.03;;;1.30;;
15966;SDS011;15175;48.154;11.534;2023-11-22T03:22:07;2.80;;;1.33;;
15966;SDS011;15175;48.154;11.534;2023-11-22T03:28:10;4.05;;;1.80;;
15966;SDS011;15175;48.154;11.534;2023-11-22T03:34:14;2.90;;;1.50;;
15966;SDS011;15175;48.154;11.534;2023-11-22T03:40:18;3.70;;;1.52;;
15966;SDS011;15175;48.154;11.534;2023-11-22T03:52:22;4.35;;;1.85;;
15966;SDS011;15175;48.154;11.534;2023-11-22T03:58:25;4.18;;;2.17;;
15966;SDS011;15175;48.154;11.534;2023-11-22T04:10:47;3.42;;;1.60;;
15966;SDS011;15175;48.154;11.534;2023-11-22T04:16:51;3.35;;;1.60;;
15966;SDS011;15175;48.154;11.534;2023-11-22T04:22:53;6.13;;;1.88;;
15966;SDS011;15175;48.154;11.534;2023-11-22T04:28:55;4.30;;;1.95;;
15966;SDS011;15175;48.154;11.534;2023-11-22T04:35:00;4.82;;;1.90;;
15966;SDS011;15175;48.154;11.534;2023-11-22T04:41:02;3.78;;;1.67;;
15966;SDS011;15175;48.154;11.534;2023-11-22T04:47:04;4.85;;;1.77;;
15966;SDS011;15175;48.154;11.534;2023-11-22T04:53:08;4.93;;;2.08;;
15966;SDS011;15175;48.154;11.534;2023-11-22T04:59:10;3.88;;;1.60;;
15966;SDS011;15175;48.154;11.534;2023-11-22T05:05:12;3.20;;;1.60;;
15966;SDS011;15175;48.154;11.534;2023-11-22T05:11:15;3.85;;;1.70;;
15966;SDS011;15175;48.154;11.534;2023-11-22T05:17:17;4.18;;;1.85;;
15966;SDS011;15175;48.154;11.534;2023-11-22T05:23:20;4.25;;;1.85;;
15966;SDS011;15175;48.154;11.534;2023-11-22T05:29:23;4.13;;;1.65;;
15966;SDS011;15175;48.154;11.534;2023-11-22T05:41:27;3.00;;;1.38;;
15966;SDS011;15175;48.154;11.534;2023-11-22T05:47:31;4.70;;;2.58;;
15966;SDS011;15175;48.154;11.534;2023-11-22T05:59:35;3.40;;;1.70;;
15966;SDS011;15175;48.154;11.534;2023-11-22T06:05:39;3.30;;;1.83;;
15966;SDS011;15175;48.154;11.534;2023-11-22T06:17:43;2.67;;;1.55;;
15966;SDS011;15175;48.154;11.534;2023-11-22T06:23:46;4.10;;;2.00;;
15966;SDS011;15175;48.154;11.534;2023-11-22T06:29:50;3.95;;;1.65;;
15966;SDS011;15175;48.154;11.534;2023-11-22T06:35:52;3.50;;;1.77;;
15966;SDS011;15175;48.154;11.534;2023-11-22T06:41:55;5.65;;;2.45;;
15966;SDS011;15175;48.154;11.534;2023-11-22T06:47:58;6.32;;;3.30;;
15966;SDS011;15175;48.154;11.534;2023-11-22T06:54:00;5.10;;;2.58;;
15966;SDS011;15175;48.154;11.534;2023-11-22T07:00:04;11.50;;;5.35;;
15966;SDS011;15175;48.154;11.534;2023-11-22T07:06:09;5.32;;;2.70;;
15966;SDS011;15175;48.154;11.534;2023-11-22T07:12:12;5.65;;;2.70;;
15966;SDS011;15175;48.154;11.534;2023-11-22T07:18:16;4.88;;;2.75;;
15966;SDS011;15175;48.154;11.534;2023-11-22T07:30:20;5.57;;;2.88;;
15966;SDS011;15175;48.154;11.534;2023-11-22T07:36:24;17.35;;;3.90;;
15966;SDS011;15175;48.154;11.534;2023-11-22T07:42:28;7.88;;;3.00;;
15966;SDS011;15175;48.154;11.534;2023-11-22T07:48:30;9.23;;;3.88;;
15966;SDS011;15175;48.154;11.534;2023-11-22T07:54:34;15.93;;;4.70;;
15966;SDS011;15175;48.154;11.534;2023-11-22T08:00:36;6.85;;;3.13;;
15966;SDS011;15175;48.154;11.534;2023-11-22T08:06:38;13.05;;;3.97;;
15966;SDS011;15175;48.154;11.534;2023-11-22T08:12:42;8.23;;;3.50;;
15966;SDS011;15175;48.154;11.534;2023-11-22T08:18:45;9.00;;;3.53;;
15966;SDS011;15175;48.154;11.534;2023-11-22T08:24:48;6.03;;;3.40;;
15966;SDS011;15175;48.154;11.534;2023-11-22T08:30:51;6.90;;;3.72;;
15966;SDS011;15175;48.154;11.534;2023-11-22T08:36:54;11.73;;;3.55;;
15966;SDS011;15175;48.154;11.534;2023-11-22T08:42:56;8.80;;;4.18;;
15966;SDS011;15175;48.154;11.534;2023-11-22T08:48:59;11.63;;;3.33;;
15966;SDS011;15175;48.154;11.534;2023-11-22T08:55:03;5.38;;;2.88;;
15966;SDS011;15175;48.154;11.534;2023-11-22T09:01:07;6.15;;;3.22;;
15966;SDS011;15175;48.154;11.534;2023-11-22T09:07:18;7.10;;;3.60;;
15966;SDS011;15175;48.154;11.534;2023-11-22T09:13:22;7.63;;;3.70;;
15966;SDS011;15175;48.154;11.534;2023-11-22T09:19:25;6.07;;;3.25;;
15966;SDS011;15175;48.154;11.534;2023-11-22T09:25:28;5.70;;;2.88;;
15966;SDS011;15175;48.154;11.534;2023-11-22T09:31:31;5.75;;;2.95;;
15966;SDS011;15175;48.154;11.534;2023-11-22T09:37:33;5.35;;;2.70;;
15966;SDS011;15175;48.154;11.534;2023-11-22T09:43:37;5.43;;;2.92;;
15966;SDS011;15175;48.154;11.534;2023-11-22T09:49:40;7.18;;;3.72;;
15966;SDS011;15175;48.154;11.534;2023-11-22T09:55:44;4.82;;;2.67;;
15966;SDS011;15175;48.154;11.534;2023-11-22T10:01:49;5.00;;;2.55;;
15966;SDS011;15175;48.154;11.534;2023-11-22T10:07:52;6.50;;;2.90;;
15966;SDS011;15175;48.154;11.534;2023-11-22T10:13:56;6.93;;;2.75;;
15966;SDS011;15175;48.154;11.534;2023-11-22T10:19:59;5.45;;;2.55;;
15966;SDS011;15175;48.154;11.534;2023-11-22T10:26:02;9.30;;;2.90;;
15966;SDS011;15175;48.154;11.534;2023-11-22T10:32:07;5.32;;;2.88;;
15966;SDS011;15175;48.154;11.534;2023-11-22T10:38:11;5.00;;;2.83;;
15966;SDS011;15175;48.154;11.534;2023-11-22T10:44:15;4.47;;;2.42;;
15966;SDS011;15175;48.154;11.534;2023-11-22T10:50:20;5.55;;;2.70;;
15966;SDS011;15175;48.154;11.534;2023-11-22T10:56:24;5.32;;;2.78;;
15966;SDS011;15175;48.154;11.534;2023-11-22T11:02:28;5.30;;;2.75;;
15966;SDS011;15175;48.154;11.534;2023-11-22T11:08:32;5.43;;;2.97;;
15966;SDS011;15175;48.154;11.534;2023-11-22T11:14:37;4.32;;;2.63;;
15966;SDS011;15175;48.154;11.534;2023-11-22T11:20:49;5.20;;;2.55;;
15966;SDS011;15175;48.154;11.534;2023-11-22T11:26:53;5.78;;;2.60;;
15966;SDS011;15175;48.154;11.534;2023-11-22T11:32:56;5.70;;;2.55;;
15966;SDS011;15175;48.154;11.534;2023-11-22T11:38:59;5.35;;;2.85;;
15966;SDS011;15175;48.154;11.534;2023-11-22T11:45:03;5.05;;;2.60;;
15966;SDS011;15175;48.154;11.534;2023-11-22T11:51:08;6.18;;;3.08;;
15966;SDS011;15175;48.154;11.534;2023-11-22T11:57:12;6.80;;;2.85;;
15966;SDS011;15175;48.154;11.534;2023-11-22T12:03:14;5.30;;;2.50;;
15966;SDS011;15175;48.154;11.534;2023-11-22T12:09:25;5.20;;;2.78;;
15966;SDS011;15175;48.154;11.534;2023-11-22T12:15:29;12.63;;;3.78;;
15966;SDS011;15175;48.154;11.534;2023-11-22T12:21:33;28.23;;;6.20;;
15966;SDS011;15175;48.154;11.534;2023-11-22T12:27:39;12.10;;;3.10;;
15966;SDS011;15175;48.154;11.534;2023-11-22T12:33:43;16.35;;;3.47;;
15966;SDS011;15175;48.154;11.534;2023-11-22T12:39:46;22.90;;;4.25;;
15966;SDS011;15175;48.154;11.534;2023-11-22T12:45:53;4.55;;;2.40;;
15966;SDS011;15175;48.154;11.534;2023-11-22T12:52:00;6.00;;;2.70;;
15966;SDS011;15175;48.154;11.534;2023-11-22T12:58:03;13.98;;;4.85;;
15966;SDS011;15175;48.154;11.534;2023-11-22T13:04:06;5.28;;;3.05;;
15966;SDS011;15175;48.154;11.534;2023-11-22T13:10:09;4.50;;;2.60;;
15966;SDS011;15175;48.154;11.534;2023-11-22T13:16:11;9.05;;;2.78;;
15966;SDS011;15175;48.154;11.534;2023-11-22T13:22:15;8.38;;;3.10;;
15966;SDS011;15175;48.154;11.534;2023-11-22T13:28:19;4.65;;;2.33;;
15966;SDS011;15175;48.154;11.534;2023-11-22T13:34:21;6.13;;;3.00;;
15966;SDS011;15175;48.154;11.534;2023-11-22T13:40:25;10.60;;;3.30;;
15966;SDS011;15175;48.154;11.534;2023-11-22T13:46:30;6.60;;;2.70;;
15966;SDS011;15175;48.154;11.534;2023-11-22T13:52:32;4.80;;;2.67;;
15966;SDS011;15175;48.154;11.534;2023-11-22T13:58:35;5.25;;;2.80;;
15966;SDS011;15175;48.154;11.534;2023-11-22T14:04:38;3.80;;;2.03;;
15966;SDS011;15175;48.154;11.534;2023-11-22T14:10:40;4.55;;;2.10;;
15966;SDS011;15175;48.154;11.534;2023-11-22T14:16:46;6.85;;;2.75;;
15966;SDS011;15175;48.154;11.534;2023-11-22T14:22:49;5.50;;;2.60;;
15966;SDS011;15175;48.154;11.534;2023-11-22T14:28:51;8.30;;;3.17;;
15966;SDS011;15175;48.154;11.534;2023-11-22T14:35:01;7.43;;;2.70;;
15966;SDS011;15175;48.154;11.534;2023-11-22T14:41:04;6.00;;;2.92;;
15966;SDS011;15175;48.154;11.534;2023-11-22T14:47:06;6.88;;;3.15;;
15966;SDS011;15175;48.154;11.534;2023-11-22T14:53:16;4.80;;;2.60;;
15966;SDS011;15175;48.154;11.534;2023-11-22T14:59:18;5.78;;;3.13;;
15966;SDS011;15175;48.154;11.534;2023-11-22T15:05:21;4.38;;;2.45;;
15966;SDS011;15175;48.154;11.534;2023-11-22T15:11:25;4.95;;;2.90;;
15966;SDS011;15175;48.154;11.534;2023-11-22T15:17:28;6.22;;;3.10;;
15966;SDS011;15175;48.154;11.534;2023-11-22T15:23:31;8.50;;;3.30;;
15966;SDS011;15175;48.154;11.534;2023-11-22T15:29:34;12.75;;;5.20;;
15966;SDS011;15175;48.154;11.534;2023-11-22T15:35:36;15.63;;;7.30;;
15966;SDS011;15175;48.154;11.534;2023-11-22T15:41:38;7.15;;;3.80;;
15966;SDS011;15175;48.154;11.534;2023-11-22T15:47:42;8.18;;;3.80;;
15966;SDS011;15175;48.154;11.534;2023-11-22T15:53:45;4.68;;;2.80;;
15966;SDS011;15175;48.154;11.534;2023-11-22T15:59:47;4.63;;;2.55;;
15966;SDS011;15175;48.154;11.534;2023-11-22T16:05:51;5.20;;;2.75;;
15966;SDS011;15175;48.154;11.534;2023-11-22T16:11:54;4.97;;;2.80;;
15966;SDS011;15175;48.154;11.534;2023-11-22T16:17:57;6.25;;;2.92;;
15966;SDS011;15175;48.154;11.534;2023-11-22T16:24:00;4.50;;;2.28;;
15966;SDS011;15175;48.154;11.534;2023-11-22T16:30:02;6.07;;;2.75;;
15966;SDS011;15175;48.154;11.534;2023-11-22T16:36:11;6.45;;;3.20;;
15966;SDS011;15175;48.154;11.534;2023-11-22T16:42:15;6.43;;;3.60;;
15966;SDS011;15175;48.154;11.534;2023-11-22T16:48:18;5.50;;;3.50;;
15966;SDS011;15175;48.154;11.534;2023-11-22T16:54:20;8.05;;;3.10;;
15966;SDS011;15175;48.154;11.534;2023-11-22T17:00:24;9.00;;;4.63;;
15966;SDS011;15175;48.154;11.534;2023-11-22T17:06:26;7.20;;;3.58;;
15966;SDS011;15175;48.154;11.534;2023-11-22T17:12:28;6.28;;;3.22;;
15966;SDS011;15175;48.154;11.534;2023-11-22T17:18:32;6.38;;;3.30;;
15966;SDS011;15175;48.154;11.534;2023-11-22T17:24:34;7.55;;;4.00;;
15966;SDS011;15175;48.154;11.534;2023-11-22T17:30:36;6.63;;;3.95;;
15966;SDS011;15175;48.154;11.534;2023-11-22T17:36:40;5.90;;;3.50;;
15966;SDS011;15175;48.154;11.534;2023-11-22T17:48:44;5.68;;;3.10;;
15966;SDS011;15175;48.154;11.534;2023-11-22T17:54:48;6.05;;;3.50;;
15966;SDS011;15175;48.154;11.534;2023-11-22T18:00:50;7.28;;;4.28;;
15966;SDS011;15175;48.154;11.534;2023-11-22T18:06:52;8.52;;;4.78;;
15966;SDS011;15175;48.154;11.534;2023-11-22T18:12:58;7.10;;;4.13;;
15966;SDS011;15175;48.154;11.534;2023-11-22T18:19:00;8.48;;;4.10;;
15966;SDS011;15175;48.154;11.534;2023-11-22T18:25:03;7.35;;;4.28;;
15966;SDS011;15175;48.154;11.534;2023-11-22T18:31:08;8.27;;;4.68;;
15966;SDS011;15175;48.154;11.534;2023-11-22T18:37:11;7.38;;;4.18;;
15966;SDS011;15175;48.154;11.534;2023-11-22T18:43:13;9.15;;;4.32;;
15966;SDS011;15175;48.154;11.534;2023-11-22T18:49:18;15.27;;;8.68;;
15966;SDS011;15175;48.154;11.534;2023-11-22T18:55:23;8.75;;;5.00;;
15966;SDS011;15175;48.154;11.534;2023-11-22T19:01:26;10.13;;;5.07;;
15966;SDS011;15175;48.154;11.534;2023-11-22T19:07:29;6.82;;;3.95;;
15966;SDS011;15175;48.154;11.534;2023-11-22T19:13:31;8.02;;;4.28;;
15966;SDS011;15175;48.154;11.534;2023-11-22T19:19:34;8.05;;;5.00;;
15966;SDS011;15175;48.154;11.534;2023-11-22T19:25:38;9.63;;;5.63;;
15966;SDS011;15175;48.154;11.534;2023-11-22T19:31:42;10.73;;;5.55;;
15966;SDS011;15175;48.154;11.534;2023-11-22T19:37:44;20.58;;;10.25;;
15966;SDS011;15175;48.154;11.534;2023-11-22T19:43:47;9.23;;;5.53;;
15966;SDS011;15175;48.154;11.534;2023-11-22T19:49:50;9.35;;;4.90;;
15966;SDS011;15175;48.154;11.534;2023-11-22T19:55:52;7.95;;;4.70;;
15966;SDS011;15175;48.154;11.534;2023-11-22T20:01:55;11.18;;;5.85;;
15966;SDS011;15175;48.154;11.534;2023-11-22T20:14:00;8.20;;;4.60;;
15966;SDS011;15175;48.154;11.534;2023-11-22T20:20:05;8.30;;;4.97;;
15966;SDS011;15175;48.154;11.534;2023-11-22T20:26:08;12.13;;;5.38;;
15966;SDS011;15175;48.154;11.534;2023-11-22T20:32:10;11.23;;;6.45;;
15966;SDS011;15175;48.154;11.534;2023-11-22T20:38:14;9.93;;;5.65;;
15966;SDS011;15175;48.154;11.534;2023-11-22T20:44:16;9.15;;;5.47;;
15966;SDS011;15175;48.154;11.534;2023-11-22T20:50:18;13.20;;;6.47;;
15966;SDS011;15175;48.154;11.534;2023-11-22T20:56:22;9.45;;;5.63;;
15966;SDS011;15175;48.154;11.534;2023-11-22T21:02:24;12.63;;;6.55;;
15966;SDS011;15175;48.154;11.534;2023-11-22T21:08:27;10.23;;;6.32;;
15966;SDS011;15175;48.154;11.534;2023-11-22T21:14:33;10.25;;;6.68;;
15966;SDS011;15175;48.154;11.534;2023-11-22T21:20:39;11.15;;;6.13;;
15966;SDS011;15175;48.154;11.534;2023-11-22T21:26:44;10.75;;;5.95;;
15966;SDS011;15175;48.154;11.534;2023-11-22T21:32:48;10.63;;;6.13;;
15966;SDS011;15175;48.154;11.534;2023-11-22T21:38:50;12.80;;;7.10;;
15966;SDS011;15175;48.154;11.534;2023-11-22T21:44:53;10.48;;;6.03;;
15966;SDS011;15175;48.154;11.534;2023-11-22T21:50:57;11.48;;;6.55;;
15966;SDS011;15175;48.154;11.534;2023-11-22T21:56:59;13.70;;;6.97;;
15966;SDS011;15175;48.154;11.534;2023-11-22T22:03:01;12.32;;;6.95;;
15966;SDS011;15175;48.154;11.534;2023-11-22T22:09:08;12.82;;;7.50;;
15966;SDS011;15175;48.154;11.534;2023-11-22T22:15:12;12.55;;;7.60;;
15966;SDS011;15175;48.154;11.534;2023-11-22T22:21:15;15.35;;;8.32;;
15966;SDS011;15175;48.154;11.534;2023-11-22T22:27:20;14.38;;;8.23;;
15966;SDS011;15175;48.154;11.534;2023-11-22T22:33:23;13.82;;;8.20;;
15966;SDS011;15175;48.154;11.534;2023-11-22T22:39:26;12.02;;;7.32;;
15966;SDS011;15175;48.154;11.534;2023-11-22T22:45:29;15.80;;;7.90;;
15966;SDS011;15175;48.154;11.534;2023-11-22T22:51:31;14.13;;;8.80;;
15966;SDS011;15175;48.154;11.534;2023-11-22T22:57:35;14.70;;;7.57;;
15966;SDS011;15175;48.154;11.534;2023-11-22T23:03:39;16.65;;;8.50;;
15966;SDS011;15175;48.154;11.534;2023-11-22T23:09:41;14.55;;;7.43;;
15966;SDS011;15175;48.154;11.534;2023-11-22T23:15:44;13.88;;;7.85;;
15966;SDS011;15175;48.154;11.534;2023-11-22T23:21:48;14.27;;;7.40;;
15966;SDS011;15175;48.154;11.534;2023-11-22T23:27:51;15.55;;;7.32;;
15966;SDS011;15175;48.154;11.534;2023-11-22T23:33:53;14.90;;;8.20;;
15966;SDS011;15175;48.154;11.534;2023-11-22T23:39:57;14.45;;;7.90;;
15966;SDS011;15175;48.154;11.534;2023-11-22T23:46:10;15.27;;;8.20;;
15966;SDS011;15175;48.154;11.534;2023-11-22T23:52:12;15.52;;;9.20;;
15966;SDS011;15175;48.154;11.534;2023-11-22T23:58:17;20.42;;;9.02;;
